Altoona, WI

4:32 PM CST on November 23, 2014 (GMT -0600)
Memorial High area | Change Station
CLOSE
Current Station
Personal Weather Station
Location: Eau Claire, WI
Elevation: 880 ft
Nearby Weather Stations

Elev 880 ft 44.80 °N, 91.48 °W | Updated 0 second ago

Fog
Fog
48.9 °F
Feels Like 49 °F
N
0.0
Wind Variable Wind from South
Gusts 3.1 mph

Today
High -- | Low -- °F
--% Chance of Precip.
Yesterday
High -- | Low -- °F
Precip. -- in
7:13 AM 4:30 PM
New Moon, 2% visible
Pressure 29.36 in
Visibility 2.5 miles
Clouds Overcast 400 ft
Windchill 49 °F
Dew Point 49 °F
Humidity 99%
Rainfall 0.00 in
Snow Depth Not available.
UV 0 out of 12
Pollen .10 out of 12
Air Quality Not available.
Flu Activity Not available.
METAR KEAU 232156Z 15007KT 2 1/2SM BR OVC004 09/08 A2935 RMK AO2 SLP941 T00940083

More Conditions Fewer Conditions

Pressure 29.36 in
Visibility 2.5 miles
Clouds Overcast 400 ft
Windchill 49 °F
Dew Point 49 °F
Humidity 99%
Rainfall 0.00 in
Snow Depth Not available.
UV 0 out of 12
Pollen .10 out of 12
Air Quality Not available.
Flu Activity Not available.
METAR KEAU 232156Z 15007KT 2 1/2SM BR OVC004 09/08 A2935 RMK AO2 SLP941 T00940083

More Conditions Fewer Conditions

Nowcast | as of 2:26 PM CST on November 23, 2014

A band of light rain...drizzle and fog is approaching western Wisconsin...between Duluth and the Twin City Metro. The leading edge will reach Solon Springs...Danbury...Grantsburg... between now and 600 PM. Light accumulations of a few hundreths up to a tenth inch of rain are expected.

×

10-Day Weather Forecast

Almanac

Astronomy

Nov. 23, 2014 Rise Set
Actual Time
Civil Twilight
Nautical Twilight
Astronomical Twilight
Moon
Length of Visible Light
Length of Day
Tomorrow will be .
, % of the Moon is Illuminated

Today's Extremes

State Highs State Lows

Community

WunderPhotos

Upload Photos

1,773,188 photos uploaded!

WunderBlogs® & News

Nearby

Air Quality

  Air Quality AQ Index Pollutant
Not available.

Snow Depth

Station Depth Elevation

Earthquake Activity

City Distance Mag. Time & Date
Minimum magnitude displayed is 2.5.

Coastal Water Temperatures

Place Temperature

Nearby Weather Stations